createdAt,value
2022-07-28T00:00:23.960Z,55.02
2022-07-28T00:05:28.577Z,55.19
2022-07-28T00:10:32.553Z,55.07
2022-07-28T00:15:36.106Z,54.64
2022-07-28T00:20:39.416Z,54.86
2022-07-28T00:25:43.086Z,55.33
2022-07-28T00:30:46.382Z,55.11
2022-07-28T00:35:49.369Z,55.73
2022-07-28T00:41:11.782Z,55.80
2022-07-28T00:46:17.402Z,55.47
2022-07-28T00:51:24.444Z,54.98
2022-07-28T00:56:27.608Z,54.86
2022-07-28T01:01:31.545Z,54.81
2022-07-28T01:07:06.654Z,54.25
2022-07-28T01:12:40.802Z,54.19
2022-07-28T01:18:04.445Z,54.36
2022-07-28T01:23:32.129Z,54.40
2022-07-28T01:28:56.217Z,54.68
2022-07-28T01:34:04.794Z,54.97
2022-07-28T01:39:08.031Z,54.98
2022-07-28T01:44:16.177Z,55.48
2022-07-28T01:49:23.572Z,55.88
2022-07-28T01:54:29.270Z,56.46
2022-07-28T01:59:33.647Z,55.74
2022-07-28T02:04:39.863Z,56.74
2022-07-28T02:09:46.355Z,56.27
2022-07-28T02:14:51.150Z,55.42
2022-07-28T02:19:56.719Z,54.71
2022-07-28T02:25:00.305Z,54.97
2022-07-28T02:30:27.679Z,55.20
2022-07-28T02:35:33.746Z,55.54
2022-07-28T02:40:43.953Z,55.88
2022-07-28T02:45:48.596Z,56.17
2022-07-28T02:50:55.678Z,57.24
2022-07-28T02:55:59.812Z,57.38
2022-07-28T03:01:03.739Z,57.39
2022-07-28T03:06:07.250Z,57.60
2022-07-28T03:11:14.860Z,54.55
2022-07-28T03:16:18.306Z,55.63
2022-07-28T03:21:21.791Z,55.46
2022-07-28T03:26:41.651Z,54.91
2022-07-28T03:31:48.439Z,54.17
2022-07-28T03:36:57.714Z,53.85
2022-07-28T03:42:03.224Z,52.57
2022-07-28T03:47:08.724Z,52.30
2022-07-28T03:52:12.678Z,51.25
2022-07-28T03:57:16.397Z,50.78
2022-07-28T04:02:19.467Z,50.47
2022-07-28T04:07:23.025Z,51.26
2022-07-28T04:12:26.697Z,49.86
2022-07-28T04:17:30.637Z,49.86
2022-07-28T04:22:34.122Z,49.75
2022-07-28T04:27:37.903Z,49.61
2022-07-28T04:32:41.488Z,50.19
2022-07-28T04:37:45.077Z,50.42
2022-07-28T04:42:48.572Z,49.80
2022-07-28T04:47:52.125Z,48.12
2022-07-28T04:52:55.281Z,47.92
2022-07-28T04:57:58.676Z,48.44
2022-07-28T05:03:03.854Z,47.52
2022-07-28T05:08:07.953Z,46.22
2022-07-28T05:13:11.279Z,45.62
2022-07-28T05:18:14.836Z,44.85
2022-07-28T05:23:17.979Z,43.37
2022-07-28T05:28:21.110Z,43.31
2022-07-28T05:33:24.244Z,41.43
2022-07-28T05:38:34.720Z,39.85
2022-07-28T05:43:38.801Z,40.11
2022-07-28T05:48:41.917Z,39.14
2022-07-28T05:53:45.381Z,39.49
2022-07-28T05:58:49.611Z,40.02
2022-07-28T06:04:10.011Z,41.06
2022-07-28T06:09:17.238Z,42.33
2022-07-28T06:14:21.345Z,43.65
2022-07-28T06:19:25.291Z,42.03
2022-07-28T06:50:59.951Z,27.20
2022-07-28T06:56:05.611Z,24.86
2022-07-28T07:01:09.486Z,26.33
2022-07-28T07:06:13.022Z,27.23
2022-07-28T07:11:16.856Z,27.30
2022-07-28T07:16:20.821Z,27.77
2022-07-28T07:21:24.445Z,26.98
2022-07-28T07:26:29.450Z,28.52
2022-07-28T07:31:39.885Z,28.28
2022-07-28T07:36:43.688Z,26.36
2022-07-28T07:41:47.217Z,27.10
2022-07-28T07:46:50.400Z,27.36
2022-07-28T07:51:53.489Z,27.69
2022-07-28T07:56:56.601Z,30.33
2022-07-28T08:01:59.703Z,32.93
2022-07-28T08:07:03.389Z,32.50
2022-07-28T08:12:09.815Z,34.52
2022-07-28T08:17:13.824Z,35.84
2022-07-28T08:22:17.703Z,36.20
2022-07-28T08:27:21.848Z,36.02
2022-07-28T08:32:24.951Z,35.65
2022-07-28T08:37:28.031Z,36.46
2022-07-28T08:42:47.396Z,37.55
2022-07-28T08:48:07.658Z,38.46
2022-07-28T08:53:12.100Z,35.15
2022-07-28T08:58:18.290Z,37.15
2022-07-28T09:03:22.065Z,36.14
2022-07-28T09:08:26.083Z,35.86
2022-07-28T09:13:30.080Z,35.95
2022-07-28T09:18:33.761Z,35.38
2022-07-28T09:23:48.342Z,37.35
2022-07-28T09:28:53.140Z,38.15
2022-07-28T09:34:06.725Z,38.69
2022-07-28T09:39:10.225Z,38.90
2022-07-28T09:44:21.277Z,40.30
2022-07-28T09:49:44.598Z,41.91
2022-07-28T09:55:14.544Z,43.72
2022-07-28T10:00:30.602Z,43.05
2022-07-28T10:05:41.688Z,42.63
2022-07-28T10:10:59.744Z,39.86
2022-07-28T10:16:13.220Z,40.80
2022-07-28T10:21:19.070Z,40.57
2022-07-28T10:26:38.047Z,38.75
2022-07-28T10:31:55.609Z,38.72
2022-07-28T10:37:02.903Z,36.60
2022-07-28T10:42:11.087Z,36.09
2022-07-28T10:47:18.434Z,36.83
2022-07-28T10:52:46.658Z,38.59
2022-07-28T10:58:10.945Z,37.25
2022-07-28T11:03:40.766Z,36.17
2022-07-28T11:08:44.254Z,36.90
2022-07-28T11:13:51.755Z,36.08
2022-07-28T11:19:40.330Z,39.77
2022-07-28T11:24:58.282Z,35.74
2022-07-28T11:30:02.217Z,36.97
2022-07-28T11:35:10.993Z,37.41
2022-07-28T11:40:30.392Z,34.47
2022-07-28T11:45:38.494Z,33.96
2022-07-28T11:51:04.919Z,34.49
2022-07-28T11:56:10.677Z,33.42
2022-07-28T12:01:17.965Z,33.25
2022-07-28T12:06:35.530Z,33.27
2022-07-28T12:11:41.900Z,32.29
2022-07-28T12:16:49.912Z,35.39
2022-07-28T12:21:58.391Z,33.71
2022-07-28T12:27:04.127Z,32.92
2022-07-28T12:32:12.398Z,33.71
2022-07-28T12:37:16.173Z,33.73
2022-07-28T12:42:20.510Z,33.73
2022-07-28T12:47:28.436Z,36.26
2022-07-28T12:52:31.568Z,40.32
2022-07-28T12:57:50.547Z,42.27
2022-07-28T13:02:57.541Z,45.56
2022-07-28T13:08:03.801Z,48.65
2022-07-28T13:13:09.241Z,52.59
2022-07-28T13:18:12.784Z,58.77
2022-07-28T13:23:16.033Z,63.99
2022-07-28T13:28:28.956Z,68.88
2022-07-28T13:33:32.454Z,71.23
2022-07-28T13:38:35.770Z,74.62
2022-07-28T13:43:39.892Z,74.59
2022-07-28T13:48:58.215Z,78.77
2022-07-28T13:54:04.177Z,81.60
2022-07-28T13:59:08.804Z,81.58
2022-07-28T14:04:17.026Z,84.17
2022-07-28T14:09:21.746Z,87.91
2022-07-28T14:14:25.746Z,89.83
2022-07-28T14:19:39.649Z,91.43
2022-07-28T14:24:43.146Z,91.32
2022-07-28T14:29:47.349Z,90.84
2022-07-28T14:34:51.037Z,91.32
2022-07-28T14:39:56.952Z,92.55
2022-07-28T14:45:02.571Z,93.83
2022-07-28T14:50:05.763Z,91.21
2022-07-28T14:55:10.382Z,82.71
2022-07-28T15:00:16.048Z,78.11
2022-07-28T15:05:19.593Z,73.90
2022-07-28T15:10:24.165Z,70.88
2022-07-28T15:15:27.965Z,70.09
2022-07-28T15:20:31.801Z,66.27
2022-07-28T15:25:35.606Z,65.19
2022-07-28T15:30:49.119Z,64.03
2022-07-28T15:35:57.927Z,63.62
2022-07-28T15:41:04.068Z,64.64
2022-07-28T15:46:10.958Z,64.20
2022-07-28T15:51:15.022Z,63.12
2022-07-28T15:56:18.176Z,63.31
2022-07-28T16:01:23.555Z,62.82
2022-07-28T16:06:48.220Z,64.17
2022-07-28T16:11:51.768Z,65.10
2022-07-28T16:16:55.355Z,66.26
2022-07-28T16:22:00.613Z,66.13
2022-07-28T16:27:05.343Z,65.74
2022-07-28T16:32:11.949Z,69.51
2022-07-28T16:37:19.627Z,70.61
2022-07-28T16:42:25.933Z,71.11
2022-07-28T16:47:31.743Z,71.27
2022-07-28T16:52:37.410Z,72.57
2022-07-28T16:57:41.416Z,72.07
2022-07-28T17:02:46.600Z,72.90
2022-07-28T17:07:52.147Z,72.86
2022-07-28T17:12:56.725Z,72.64
2022-07-28T17:18:00.806Z,71.11
2022-07-28T17:23:05.680Z,73.65
2022-07-28T17:28:09.597Z,74.40
2022-07-28T17:33:13.406Z,74.94
2022-07-28T17:38:28.264Z,76.14
2022-07-28T17:43:35.926Z,76.80
2022-07-28T17:48:40.752Z,77.97
2022-07-28T17:53:46.557Z,79.11
2022-07-28T17:58:51.334Z,80.79
2022-07-28T18:04:00.426Z,81.94
2022-07-28T18:09:11.128Z,82.79
2022-07-28T18:14:15.763Z,83.39
2022-07-28T18:19:21.767Z,84.79
2022-07-28T18:24:26.853Z,85.84
2022-07-28T18:29:37.987Z,87.22
2022-07-28T18:34:45.582Z,85.97
2022-07-28T18:39:48.975Z,80.53
2022-07-28T18:44:52.007Z,87.15
2022-07-28T18:49:58.897Z,89.64
2022-07-28T18:55:02.676Z,89.89
2022-07-28T19:00:12.066Z,91.04
2022-07-28T19:05:15.493Z,92.53
2022-07-28T19:10:18.679Z,93.54
2022-07-28T19:15:21.840Z,93.80
2022-07-28T19:20:24.910Z,94.92
2022-07-28T19:25:30.635Z,95.89
2022-07-28T19:30:35.294Z,95.79
2022-07-28T19:35:39.194Z,96.10
2022-07-28T19:40:43.566Z,95.99
2022-07-28T19:45:47.133Z,96.88
2022-07-28T19:50:52.607Z,97.69
2022-07-28T19:55:56.932Z,97.10
2022-07-28T20:01:00.424Z,96.75
2022-07-28T20:06:04.315Z,97.80
2022-07-28T20:11:08.554Z,97.05
2022-07-28T20:16:11.734Z,93.76
2022-07-28T20:21:15.186Z,88.40
2022-07-28T20:26:23.828Z,83.05
2022-07-28T20:31:30.929Z,83.05
2022-07-28T20:36:35.919Z,84.10
2022-07-28T20:41:39.427Z,82.86
2022-07-28T20:46:43.476Z,80.28
2022-07-28T20:51:50.876Z,79.87
2022-07-28T20:56:54.535Z,79.24
2022-07-28T21:01:58.409Z,79.65
2022-07-28T21:07:04.125Z,79.43
2022-07-28T21:12:07.857Z,78.68
2022-07-28T21:17:11.043Z,78.90
2022-07-28T21:22:14.262Z,79.20
2022-07-28T21:27:18.129Z,79.67
2022-07-28T21:32:21.782Z,78.90
2022-07-28T21:37:25.941Z,79.04
2022-07-28T21:42:30.006Z,79.04
2022-07-28T21:47:34.337Z,78.70
2022-07-28T21:52:40.052Z,79.96
2022-07-28T21:57:44.118Z,82.06
2022-07-28T22:02:48.105Z,83.28
2022-07-28T22:07:53.519Z,83.62
2022-07-28T22:12:59.871Z,83.45
2022-07-28T22:18:03.362Z,82.00
2022-07-28T22:23:11.607Z,83.30
2022-07-28T22:28:30.776Z,84.54
2022-07-28T22:33:34.441Z,81.72
2022-07-28T22:38:38.047Z,78.73
2022-07-28T22:43:42.273Z,80.04
2022-07-28T22:48:45.449Z,81.61
2022-07-28T22:53:48.593Z,82.98
2022-07-28T22:58:52.429Z,82.98
2022-07-28T23:03:55.649Z,84.53
2022-07-28T23:08:59.596Z,85.62
2022-07-28T23:14:03.364Z,87.64
2022-07-28T23:19:06.514Z,88.09
2022-07-28T23:24:10.630Z,88.99
2022-07-28T23:29:14.016Z,88.89
2022-07-28T23:34:18.530Z,89.79
2022-07-28T23:39:22.715Z,89.69
2022-07-28T23:44:25.956Z,90.34
2022-07-28T23:49:29.365Z,90.96
2022-07-28T23:54:33.380Z,91.43
2022-07-28T23:59:37.495Z,92.27
